createdAt,value
2023-04-20T00:00:50.948Z,9.26
2023-04-20T00:03:21.536Z,9.28
2023-04-20T00:05:50.506Z,9.12
2023-04-20T00:08:18.693Z,8.85
2023-04-20T00:10:47.024Z,9.20
2023-04-20T00:13:15.002Z,9.17
2023-04-20T00:15:42.940Z,9.07
2023-04-20T00:18:11.151Z,8.87
2023-04-20T00:20:40.518Z,9.15
2023-04-20T00:23:08.836Z,8.85
2023-04-20T00:25:36.753Z,8.99
2023-04-20T00:28:05.134Z,8.81
2023-04-20T00:30:34.879Z,8.62
2023-04-20T00:33:04.292Z,8.71
2023-04-20T00:35:32.292Z,8.64
2023-04-20T00:38:01.594Z,8.45
2023-04-20T00:40:30.737Z,8.27
2023-04-20T00:42:58.656Z,8.34
2023-04-20T00:45:26.751Z,8.29
2023-04-20T00:47:54.722Z,8.06
2023-04-20T00:50:22.769Z,8.13
2023-04-20T00:52:51.035Z,8.23
2023-04-20T00:55:21.681Z,8.01
2023-04-20T00:57:49.946Z,9.62
2023-04-20T01:00:18.198Z,8.40
2023-04-20T01:02:49.981Z,8.29
2023-04-20T01:05:18.562Z,8.32
2023-04-20T01:07:46.599Z,8.50
2023-04-20T01:10:14.607Z,8.24
2023-04-20T01:12:43.924Z,8.56
2023-04-20T01:15:12.296Z,8.55
2023-04-20T01:17:40.894Z,8.65
2023-04-20T01:20:12.468Z,10.03
2023-04-20T01:22:46.828Z,9.32
2023-04-20T01:25:14.994Z,10.26
2023-04-20T01:27:43.011Z,9.00
2023-04-20T01:30:12.125Z,9.99
2023-04-20T01:32:40.847Z,9.57
2023-04-20T01:35:10.015Z,8.59
2023-04-20T01:37:39.702Z,8.38
2023-04-20T01:40:11.075Z,8.46
2023-04-20T01:42:39.211Z,8.37
2023-04-20T01:45:08.556Z,8.38
2023-04-20T01:47:36.963Z,8.32
2023-04-20T01:50:05.322Z,8.21
2023-04-20T01:52:33.177Z,8.30
2023-04-20T01:55:01.125Z,8.46
2023-04-20T01:57:30.326Z,8.25
2023-04-20T01:59:58.249Z,8.31
2023-04-20T02:02:26.273Z,8.36
2023-04-20T02:04:55.154Z,8.55
2023-04-20T02:07:23.169Z,8.31
2023-04-20T02:09:51.074Z,8.59
2023-04-20T02:12:19.008Z,8.55
2023-04-20T02:14:48.272Z,9.74
2023-04-20T02:17:16.359Z,10.43
2023-04-20T02:19:44.547Z,10.39
2023-04-20T02:22:12.500Z,10.75
2023-04-20T02:24:41.457Z,10.92
2023-04-20T02:27:09.352Z,8.77
2023-04-20T02:29:37.383Z,8.53
2023-04-20T02:32:08.193Z,8.61
2023-04-20T02:34:36.209Z,8.46
2023-04-20T02:37:04.460Z,8.45
2023-04-20T02:39:32.332Z,8.72
2023-04-20T02:42:00.344Z,8.43
2023-04-20T02:44:29.168Z,8.71
2023-04-20T02:46:57.424Z,8.41
2023-04-20T02:49:28.017Z,8.36
2023-04-20T02:51:55.941Z,8.25
2023-04-20T02:54:24.174Z,8.61
2023-04-20T02:56:52.471Z,8.73
2023-04-20T02:59:20.380Z,8.77
2023-04-20T03:02:00.361Z,8.76
2023-04-20T03:04:31.174Z,8.53
2023-04-20T03:07:18.929Z,8.59
2023-04-20T03:09:48.545Z,8.44
2023-04-20T03:12:19.377Z,8.72
2023-04-20T03:14:59.827Z,8.39
2023-04-20T03:17:40.522Z,8.39
2023-04-20T03:20:11.159Z,8.38
2023-04-20T03:22:39.338Z,8.62
2023-04-20T03:25:09.027Z,8.67
2023-04-20T03:28:00.334Z,8.48
2023-04-20T03:30:28.619Z,8.59
2023-04-20T03:33:17.033Z,8.67
2023-04-20T03:35:46.361Z,8.56
2023-04-20T03:38:14.402Z,8.57
2023-04-20T03:40:42.324Z,8.20
2023-04-20T03:43:11.251Z,8.44
2023-04-20T03:45:39.220Z,8.41
2023-04-20T03:48:07.307Z,8.21
2023-04-20T03:50:35.179Z,9.66
2023-04-20T03:53:04.450Z,10.26
2023-04-20T03:55:33.074Z,9.92
2023-04-20T03:58:06.955Z,10.30
2023-04-20T04:00:45.798Z,10.13
2023-04-20T04:03:15.709Z,10.07
2023-04-20T04:05:43.875Z,10.64
2023-04-20T04:08:13.139Z,9.81
2023-04-20T04:10:41.065Z,10.11
2023-04-20T04:13:09.023Z,9.68
2023-04-20T04:15:37.754Z,10.22
2023-04-20T04:18:11.115Z,10.22
2023-04-20T04:20:40.767Z,10.43
2023-04-20T04:23:10.414Z,9.80
2023-04-20T04:25:46.167Z,9.66
2023-04-20T04:28:16.586Z,10.07
2023-04-20T04:30:54.235Z,9.84
2023-04-20T04:33:23.198Z,10.06
2023-04-20T04:35:53.644Z,10.28
2023-04-20T04:38:22.836Z,9.90
2023-04-20T04:40:53.965Z,10.01
2023-04-20T04:43:22.277Z,10.47
2023-04-20T04:46:00.045Z,10.43
2023-04-20T04:48:29.134Z,10.11
2023-04-20T04:50:57.042Z,10.28
2023-04-20T04:53:24.934Z,10.12
2023-04-20T04:55:54.161Z,10.00
2023-04-20T04:58:22.077Z,10.01
2023-04-20T05:00:50.242Z,9.79
2023-04-20T05:03:18.386Z,9.72
2023-04-20T05:05:46.572Z,9.84
2023-04-20T05:08:14.484Z,9.61
2023-04-20T05:10:42.378Z,10.25
2023-04-20T05:13:11.702Z,9.15
2023-04-20T05:15:40.582Z,9.39
2023-04-20T05:18:09.677Z,9.46
2023-04-20T05:20:37.778Z,9.40
2023-04-20T05:23:05.698Z,9.36
2023-04-20T05:25:33.806Z,9.17
2023-04-20T05:28:01.757Z,9.01
2023-04-20T05:30:31.416Z,9.04
2023-04-20T05:32:59.511Z,9.02
2023-04-20T05:35:27.532Z,9.15
2023-04-20T05:37:55.634Z,9.68
2023-04-20T05:40:23.816Z,9.12
2023-04-20T05:42:51.943Z,9.24
2023-04-20T05:45:20.042Z,9.15
2023-04-20T05:47:55.197Z,9.68
2023-04-20T05:50:23.601Z,9.58
2023-04-20T05:52:51.767Z,9.31
2023-04-20T05:55:22.260Z,9.56
2023-04-20T05:57:52.746Z,9.48
2023-04-20T06:00:23.796Z,9.33
2023-04-20T06:02:55.492Z,9.29
2023-04-20T06:05:23.874Z,9.46
2023-04-20T06:07:51.850Z,9.32
2023-04-20T06:10:19.835Z,9.25
2023-04-20T06:12:48.227Z,9.51
2023-04-20T06:15:16.241Z,9.48
2023-04-20T06:17:44.149Z,8.92
2023-04-20T06:20:13.625Z,9.19
2023-04-20T06:22:44.555Z,9.19
2023-04-20T06:25:13.477Z,9.31
2023-04-20T06:27:41.460Z,9.38
2023-04-20T06:30:10.104Z,10.04
2023-04-20T06:32:38.875Z,9.61
2023-04-20T06:35:08.575Z,9.70
2023-04-20T06:37:38.726Z,9.58
2023-04-20T06:40:09.371Z,9.51
2023-04-20T06:42:37.701Z,9.83
2023-04-20T06:45:06.873Z,10.04
2023-04-20T06:47:34.962Z,10.40
2023-04-20T06:50:07.123Z,9.63
2023-04-20T06:52:35.102Z,10.30
2023-04-20T06:55:04.583Z,10.37
2023-04-20T06:57:32.559Z,10.62
2023-04-20T07:00:00.572Z,10.00
2023-04-20T07:02:29.226Z,9.92
2023-04-20T07:05:02.525Z,9.93
2023-04-20T07:07:30.662Z,10.17
2023-04-20T07:09:58.665Z,10.44
2023-04-20T07:12:27.949Z,10.85
2023-04-20T07:14:56.058Z,10.21
2023-04-20T07:17:23.927Z,10.18
2023-04-20T07:19:52.609Z,10.52
2023-04-20T07:22:20.504Z,10.13
2023-04-20T07:24:48.489Z,10.53
2023-04-20T07:27:16.567Z,10.01
2023-04-20T07:29:45.893Z,10.11
2023-04-20T07:32:14.643Z,10.10
2023-04-20T07:34:42.719Z,10.19
2023-04-20T07:37:10.633Z,10.20
2023-04-20T07:39:38.620Z,9.95
2023-04-20T07:42:07.795Z,10.51
2023-04-20T07:44:36.626Z,10.03
2023-04-20T07:47:06.004Z,9.98
2023-04-20T07:49:37.532Z,10.26
2023-04-20T07:52:15.734Z,9.72
2023-04-20T07:54:45.296Z,9.61
2023-04-20T07:59:58.466Z,10.22
2023-04-20T08:02:27.891Z,9.79
2023-04-20T08:04:56.262Z,10.68
2023-04-20T08:07:24.227Z,10.12
2023-04-20T08:09:52.109Z,9.78
2023-04-20T08:12:19.991Z,10.24
2023-04-20T08:14:47.942Z,9.94
2023-04-20T08:17:16.129Z,10.42
2023-04-20T08:19:46.155Z,10.63
2023-04-20T08:22:14.337Z,10.65
2023-04-20T08:24:42.226Z,11.42
2023-04-20T08:27:10.292Z,11.05
2023-04-20T08:29:39.468Z,11.55
2023-04-20T08:32:09.115Z,11.40
2023-04-20T08:34:37.270Z,11.77
2023-04-20T08:37:07.068Z,12.98
2023-04-20T08:39:34.975Z,12.14
2023-04-20T08:42:03.294Z,12.23
2023-04-20T08:44:31.552Z,11.98
2023-04-20T08:47:00.868Z,12.26
2023-04-20T08:49:30.747Z,12.08
2023-04-20T08:51:58.847Z,12.16
2023-04-20T08:54:28.105Z,12.21
2023-04-20T08:56:56.825Z,12.17
2023-04-20T08:59:24.813Z,12.10
2023-04-20T09:01:52.841Z,11.51
2023-04-20T09:04:23.476Z,12.38
2023-04-20T09:06:53.625Z,11.90
2023-04-20T09:09:23.500Z,11.78
2023-04-20T09:12:03.632Z,11.85
2023-04-20T09:14:32.452Z,11.85
2023-04-20T09:17:02.229Z,11.89
2023-04-20T09:19:31.091Z,11.64
2023-04-20T09:22:01.276Z,11.79
2023-04-20T09:24:33.035Z,12.06
2023-04-20T09:27:03.845Z,11.53
2023-04-20T09:29:32.199Z,11.05
2023-04-20T09:32:00.211Z,10.96
2023-04-20T09:34:28.311Z,10.79
2023-04-20T09:36:57.509Z,11.63
2023-04-20T09:39:26.921Z,12.08
2023-04-20T09:41:54.837Z,12.44
2023-04-20T09:44:24.202Z,12.70
2023-04-20T09:46:53.026Z,12.56
2023-04-20T09:49:21.371Z,12.73
2023-04-20T09:51:50.682Z,13.24
2023-04-20T09:54:18.904Z,13.63
2023-04-20T09:56:47.244Z,12.97
2023-04-20T09:59:15.406Z,12.70
2023-04-20T10:01:44.902Z,13.04
2023-04-20T10:04:14.946Z,13.77
2023-04-20T10:06:53.896Z,13.30
2023-04-20T10:09:25.850Z,13.32
2023-04-20T10:11:56.079Z,12.91
2023-04-20T10:14:26.732Z,13.00
2023-04-20T10:17:03.597Z,13.26
2023-04-20T10:19:39.680Z,13.08
2023-04-20T10:22:08.482Z,13.44
2023-04-20T10:24:38.182Z,13.33
2023-04-20T10:27:16.955Z,13.56
2023-04-20T10:29:47.046Z,13.08
2023-04-20T10:32:25.136Z,14.00
2023-04-20T10:35:04.622Z,14.16
2023-04-20T10:37:32.705Z,13.25
2023-04-20T10:40:00.831Z,13.49
2023-04-20T10:42:29.681Z,13.71
2023-04-20T10:44:57.719Z,14.94
2023-04-20T10:47:34.229Z,14.83
2023-04-20T10:50:10.001Z,14.84
2023-04-20T10:52:39.764Z,13.98
2023-04-20T10:55:19.185Z,14.70
2023-04-20T10:57:47.239Z,14.53
2023-04-20T11:00:17.668Z,15.01
2023-04-20T11:02:55.442Z,16.43
2023-04-20T11:05:24.839Z,17.02
2023-04-20T11:07:54.111Z,16.84
2023-04-20T11:10:23.877Z,17.26
2023-04-20T11:12:53.196Z,16.75
2023-04-20T11:15:31.665Z,16.21
2023-04-20T11:18:09.072Z,16.42
2023-04-20T11:20:37.397Z,16.40
2023-04-20T11:23:06.072Z,16.56
2023-04-20T11:25:34.147Z,19.85
2023-04-20T11:28:08.623Z,19.13
2023-04-20T11:30:41.427Z,17.89
2023-04-20T11:33:11.655Z,16.63
2023-04-20T11:35:41.368Z,18.01
2023-04-20T11:38:09.696Z,19.44
2023-04-20T11:40:37.729Z,20.48
2023-04-20T11:43:05.703Z,20.15
2023-04-20T11:45:36.258Z,20.88
2023-04-20T11:48:06.067Z,18.74
2023-04-20T11:50:36.122Z,20.50
2023-04-20T11:53:04.392Z,20.30
2023-04-20T11:55:32.275Z,20.57
2023-04-20T11:58:00.129Z,18.71
2023-04-20T12:00:28.271Z,18.94
2023-04-20T12:02:56.365Z,21.25
2023-04-20T12:05:24.582Z,21.70
2023-04-20T12:07:53.976Z,23.52
2023-04-20T12:10:22.142Z,22.80
2023-04-20T12:12:50.194Z,20.37
2023-04-20T12:15:18.402Z,19.17
2023-04-20T12:17:46.715Z,18.85
2023-04-20T12:20:15.226Z,18.61
2023-04-20T12:22:43.424Z,16.87
2023-04-20T12:25:13.085Z,18.69
2023-04-20T12:27:41.440Z,17.78
2023-04-20T12:30:10.496Z,17.33
2023-04-20T12:32:38.523Z,16.24
2023-04-20T12:35:08.465Z,16.34
2023-04-20T12:37:36.870Z,16.13
2023-04-20T12:40:06.349Z,15.97
2023-04-20T12:42:35.701Z,16.50
2023-04-20T12:45:03.612Z,16.13
2023-04-20T12:47:31.864Z,16.02
2023-04-20T12:49:59.826Z,15.00
2023-04-20T12:52:28.078Z,15.37
2023-04-20T12:54:56.024Z,15.44
2023-04-20T12:57:24.055Z,15.29
2023-04-20T12:59:53.656Z,15.36
2023-04-20T13:02:21.641Z,15.06
2023-04-20T13:04:49.698Z,14.53
2023-04-20T13:07:17.725Z,14.68
2023-04-20T13:09:45.738Z,14.36
2023-04-20T13:12:14.409Z,14.27
2023-04-20T13:14:42.377Z,14.63
2023-04-20T13:17:11.638Z,14.64
2023-04-20T13:19:39.848Z,14.57
2023-04-20T13:22:07.802Z,16.03
2023-04-20T13:24:35.710Z,21.17
2023-04-20T13:27:04.517Z,22.73
2023-04-20T13:29:32.621Z,24.19
2023-04-20T13:32:00.748Z,25.51
2023-04-20T13:34:30.189Z,25.56
2023-04-20T13:36:58.307Z,27.41
2023-04-20T13:39:27.858Z,22.08
2023-04-20T13:41:55.953Z,19.62
2023-04-20T13:44:23.895Z,17.68
2023-04-20T13:46:51.855Z,17.31
2023-04-20T13:49:22.824Z,17.54
2023-04-20T13:51:52.255Z,16.66
2023-04-20T13:54:25.928Z,16.33
2023-04-20T13:56:54.194Z,16.26
2023-04-20T13:59:22.180Z,16.04
2023-04-20T14:01:50.183Z,16.06
2023-04-20T14:04:18.556Z,15.72
2023-04-20T14:06:46.788Z,16.53
2023-04-20T14:09:16.205Z,16.68
2023-04-20T14:11:44.159Z,18.55
2023-04-20T14:14:12.435Z,17.92
2023-04-20T14:16:44.668Z,16.68
2023-04-20T14:19:12.706Z,17.15
2023-04-20T14:21:41.333Z,18.61
2023-04-20T14:24:10.431Z,19.38
2023-04-20T14:26:39.796Z,18.47
2023-04-20T14:29:07.793Z,18.28
2023-04-20T14:31:35.944Z,17.60
2023-04-20T14:34:04.396Z,16.21
2023-04-20T14:36:32.412Z,16.22
2023-04-20T14:39:00.435Z,16.54
2023-04-20T14:41:28.455Z,18.01
2023-04-20T14:43:57.779Z,16.90
2023-04-20T14:46:25.763Z,16.96
2023-04-20T14:48:53.813Z,16.80
2023-04-20T14:51:21.819Z,16.65
2023-04-20T14:53:49.946Z,17.05
2023-04-20T14:56:17.915Z,18.80
2023-04-20T14:58:48.021Z,23.92
2023-04-20T15:01:21.443Z,25.18
2023-04-20T15:03:49.645Z,21.30
2023-04-20T15:06:17.906Z,18.81
2023-04-20T15:08:45.864Z,19.14
2023-04-20T15:11:13.911Z,18.92
2023-04-20T15:13:42.446Z,17.81
2023-04-20T15:16:10.577Z,17.86
2023-04-20T15:18:39.893Z,17.46
2023-04-20T15:21:08.450Z,17.40
2023-04-20T15:23:36.590Z,17.66
2023-04-20T15:26:04.505Z,17.91
2023-04-20T15:28:32.561Z,17.89
2023-04-20T15:31:00.503Z,17.72
2023-04-20T15:33:28.461Z,17.34
2023-04-20T15:35:57.883Z,17.50
2023-04-20T15:38:25.889Z,17.60
2023-04-20T15:40:53.929Z,19.44
2023-04-20T15:43:21.819Z,20.67
2023-04-20T15:45:49.950Z,19.85
2023-04-20T15:48:18.624Z,20.30
2023-04-20T15:50:46.840Z,19.09
2023-04-20T15:53:16.099Z,18.97
2023-04-20T15:55:44.198Z,17.42
2023-04-20T15:58:12.075Z,16.20
2023-04-20T16:00:41.329Z,17.05
2023-04-20T16:03:09.528Z,17.18
2023-04-20T16:05:37.916Z,18.66
2023-04-20T16:08:06.526Z,19.40
2023-04-20T16:10:36.308Z,19.72
2023-04-20T16:13:04.628Z,18.31
2023-04-20T16:15:32.695Z,16.92
2023-04-20T16:18:00.915Z,17.31
2023-04-20T16:20:29.028Z,16.53
2023-04-20T16:22:57.046Z,16.42
2023-04-20T16:25:25.594Z,15.73
2023-04-20T16:27:54.996Z,15.34
2023-04-20T16:30:23.011Z,15.07
2023-04-20T16:32:51.133Z,14.60
2023-04-20T16:35:19.084Z,13.62
2023-04-20T16:37:47.138Z,14.00
2023-04-20T16:40:15.089Z,14.44
2023-04-20T16:42:43.056Z,13.65
2023-04-20T16:45:12.434Z,14.14
2023-04-20T16:47:40.733Z,13.20
2023-04-20T16:50:09.266Z,13.13
2023-04-20T16:52:37.319Z,13.20
2023-04-20T16:55:05.920Z,13.74
2023-04-20T16:57:33.855Z,13.02
2023-04-20T17:00:01.837Z,12.94
2023-04-20T17:02:33.151Z,12.95
2023-04-20T17:05:01.239Z,12.95
2023-04-20T17:07:29.327Z,13.33
2023-04-20T17:09:57.344Z,12.92
2023-04-20T17:12:25.381Z,12.99
2023-04-20T17:14:53.234Z,13.04
2023-04-20T17:17:21.150Z,13.28
2023-04-20T17:19:50.542Z,13.42
2023-04-20T17:22:18.404Z,13.15
2023-04-20T17:24:46.539Z,13.08
2023-04-20T17:27:16.003Z,13.27
2023-04-20T17:29:44.953Z,12.83
2023-04-20T17:32:13.095Z,12.84
2023-04-20T17:34:41.248Z,13.44
2023-04-20T17:37:12.051Z,12.79
2023-04-20T17:39:40.040Z,12.95
2023-04-20T17:42:08.052Z,12.70
2023-04-20T17:44:36.087Z,12.76
2023-04-20T17:47:04.030Z,12.61
2023-04-20T17:49:32.493Z,12.63
2023-04-20T17:52:00.522Z,12.89
2023-04-20T17:54:29.848Z,12.71
2023-04-20T17:56:58.095Z,13.02
2023-04-20T17:59:26.340Z,12.73
2023-04-20T18:01:54.414Z,12.61
2023-04-20T18:04:22.631Z,12.81
2023-04-20T18:06:51.422Z,12.82
2023-04-20T18:09:19.250Z,12.89
2023-04-20T18:11:50.727Z,12.16
2023-04-20T18:14:18.707Z,12.27
2023-04-20T18:16:51.692Z,12.06
2023-04-20T18:19:19.787Z,12.18
2023-04-20T18:21:47.797Z,11.83
2023-04-20T18:24:15.815Z,12.40
2023-04-20T18:26:43.833Z,12.25
2023-04-20T18:29:13.207Z,12.30
2023-04-20T18:31:41.258Z,12.11
2023-04-20T18:34:11.598Z,12.23
2023-04-20T18:36:40.106Z,12.25
2023-04-20T18:39:14.740Z,12.52
2023-04-20T18:41:48.430Z,11.99
2023-04-20T18:44:18.249Z,12.31
2023-04-20T18:46:46.575Z,12.64
2023-04-20T18:49:14.807Z,12.74
2023-04-20T18:51:42.719Z,12.25
2023-04-20T18:54:10.880Z,12.49
2023-04-20T18:56:39.589Z,12.34
2023-04-20T18:59:08.592Z,12.32
2023-04-20T19:01:40.592Z,12.60
2023-04-20T19:04:09.146Z,12.17
2023-04-20T19:06:37.321Z,12.19
2023-04-20T19:09:07.889Z,11.72
2023-04-20T19:11:36.420Z,11.98
2023-04-20T19:14:04.368Z,12.05
2023-04-20T19:16:32.900Z,12.06
2023-04-20T19:19:02.940Z,11.91
2023-04-20T19:21:32.003Z,11.88
2023-04-20T19:24:00.281Z,11.81
2023-04-20T19:26:28.329Z,11.95
2023-04-20T19:28:58.144Z,11.99
2023-04-20T19:31:26.434Z,11.98
2023-04-20T19:33:57.191Z,12.49
2023-04-20T19:36:26.671Z,12.27
2023-04-20T19:38:54.650Z,12.49
2023-04-20T19:41:22.590Z,12.28
2023-04-20T19:43:50.523Z,12.11
2023-04-20T19:46:18.551Z,12.31
2023-04-20T19:48:46.505Z,12.26
2023-04-20T19:51:14.401Z,12.15
2023-04-20T19:53:43.636Z,12.45
2023-04-20T19:56:11.507Z,11.83
2023-04-20T19:58:39.393Z,12.13
2023-04-20T20:01:07.340Z,12.46
2023-04-20T20:03:35.573Z,12.18
2023-04-20T20:06:03.790Z,11.78
2023-04-20T20:08:31.697Z,11.81
2023-04-20T20:11:00.933Z,11.99
2023-04-20T20:13:28.859Z,11.82
2023-04-20T20:15:56.879Z,11.66
2023-04-20T20:18:24.804Z,11.56
2023-04-20T20:20:52.686Z,12.11
2023-04-20T20:23:20.817Z,11.60
2023-04-20T20:25:48.866Z,11.48
2023-04-20T20:28:18.120Z,11.63
2023-04-20T20:30:46.309Z,11.64
2023-04-20T20:33:14.324Z,11.39
2023-04-20T20:35:42.600Z,12.13
2023-04-20T20:38:11.012Z,11.76
2023-04-20T20:40:45.038Z,12.12
2023-04-20T20:43:12.978Z,11.78
2023-04-20T20:45:43.013Z,11.57
2023-04-20T20:48:11.055Z,11.28
2023-04-20T20:50:39.091Z,11.80
2023-04-20T20:53:07.862Z,11.69
2023-04-20T20:55:35.932Z,11.93
2023-04-20T20:58:03.881Z,11.72
2023-04-20T21:00:33.366Z,11.79
2023-04-20T21:03:03.357Z,11.69
2023-04-20T21:05:33.637Z,11.77
2023-04-20T21:08:03.358Z,11.74
2023-04-20T21:10:31.510Z,11.91
2023-04-20T21:12:59.430Z,11.91
2023-04-20T21:15:29.501Z,11.81
2023-04-20T21:17:57.533Z,11.65
2023-04-20T21:20:26.882Z,11.69
2023-04-20T21:22:55.006Z,12.04
2023-04-20T21:25:23.124Z,12.06
2023-04-20T21:27:51.023Z,12.14
2023-04-20T21:30:19.012Z,11.66
2023-04-20T21:32:46.943Z,11.86
2023-04-20T21:35:14.811Z,11.76
2023-04-20T21:37:44.075Z,11.67
2023-04-20T21:40:13.007Z,11.71
2023-04-20T21:42:40.982Z,11.74
2023-04-20T21:45:10.100Z,12.12
2023-04-20T21:47:38.049Z,12.25
2023-04-20T21:50:06.781Z,12.24
2023-04-20T21:52:34.698Z,11.98
2023-04-20T21:55:04.122Z,12.30
2023-04-20T21:57:32.009Z,12.49
2023-04-20T21:59:59.966Z,12.60
2023-04-20T22:02:28.021Z,11.75
2023-04-20T22:04:56.318Z,12.10
2023-04-20T22:07:24.323Z,12.07
2023-04-20T22:09:52.270Z,12.39
2023-04-20T22:12:32.329Z,12.19
2023-04-20T22:15:04.357Z,11.97
2023-04-20T22:17:34.291Z,12.10
2023-04-20T22:20:04.115Z,11.74
2023-04-20T22:22:31.997Z,11.76
2023-04-20T22:24:59.812Z,11.25
2023-04-20T22:27:29.964Z,11.46
2023-04-20T22:29:58.069Z,11.72
2023-04-20T22:32:26.234Z,11.75
2023-04-20T22:34:55.536Z,11.94
2023-04-20T22:37:28.314Z,12.24
2023-04-20T22:39:56.338Z,11.93
2023-04-20T22:42:24.410Z,12.14
2023-04-20T22:44:53.866Z,11.83
2023-04-20T22:47:21.974Z,11.76
2023-04-20T22:49:50.704Z,11.63
2023-04-20T22:52:18.634Z,11.35
2023-04-20T22:54:48.248Z,11.28
2023-04-20T22:57:18.015Z,11.46
2023-04-20T22:59:45.923Z,11.38
2023-04-20T23:02:15.350Z,11.42
2023-04-20T23:04:43.865Z,11.55
2023-04-20T23:07:12.042Z,11.65
2023-04-20T23:09:42.166Z,11.75
2023-04-20T23:12:10.397Z,11.72
2023-04-20T23:14:39.140Z,11.73
2023-04-20T23:17:07.488Z,11.89
2023-04-20T23:19:38.468Z,11.69
2023-04-20T23:22:09.081Z,11.75
2023-04-20T23:24:37.184Z,11.77
2023-04-20T23:27:05.244Z,11.76
2023-04-20T23:29:33.176Z,11.91
2023-04-20T23:32:01.457Z,12.01
2023-04-20T23:34:29.426Z,11.98
2023-04-20T23:36:59.455Z,11.43
2023-04-20T23:39:27.639Z,11.91
2023-04-20T23:41:56.158Z,11.99
2023-04-20T23:44:24.058Z,11.83
2023-04-20T23:46:52.042Z,11.84
2023-04-20T23:49:20.156Z,11.81
2023-04-20T23:51:48.220Z,11.29
2023-04-20T23:54:17.606Z,11.22
2023-04-20T23:56:45.581Z,11.51
2023-04-20T23:59:13.527Z,11.74
